createdAt,value
2018-06-01T00:01:26.744Z,28.20
2018-06-01T00:03:54.227Z,28.70
2018-06-01T00:06:21.732Z,29.00
2018-06-01T00:08:49.281Z,28.80
2018-06-01T00:11:17.160Z,28.30
2018-06-01T00:13:44.713Z,28.50
2018-06-01T00:16:13.028Z,28.60
2018-06-01T00:18:40.593Z,28.70
2018-06-01T00:21:08.048Z,28.90
2018-06-01T00:23:35.562Z,28.40
2018-06-01T00:26:03.779Z,27.80
2018-06-01T00:28:31.287Z,27.80
2018-06-01T00:30:59.303Z,27.90
2018-06-01T00:33:26.874Z,28.40
2018-06-01T00:35:54.582Z,28.00
2018-06-01T00:38:22.061Z,28.20
2018-06-01T00:40:49.599Z,28.60
2018-06-01T00:43:17.168Z,28.80
2018-06-01T00:45:45.459Z,29.10
2018-06-01T00:48:13.738Z,29.10
2018-06-01T00:50:42.053Z,28.60
2018-06-01T00:53:09.618Z,28.60
2018-06-01T00:55:37.155Z,28.50
2018-06-01T00:58:04.715Z,28.00
2018-06-01T01:00:32.284Z,27.50
2018-06-01T01:02:59.843Z,27.50
2018-06-01T01:05:27.328Z,27.80
2018-06-01T01:07:54.805Z,28.20
2018-06-01T01:10:22.328Z,27.30
2018-06-01T01:12:49.905Z,27.50
2018-06-01T01:15:17.432Z,28.00
2018-06-01T01:17:44.922Z,28.40
2018-06-01T01:20:12.499Z,28.50
2018-06-01T01:22:39.980Z,28.10
2018-06-01T01:25:08.216Z,28.50
2018-06-01T01:27:35.720Z,28.40
2018-06-01T01:30:03.273Z,28.60
2018-06-01T01:32:30.784Z,28.70
2018-06-01T01:34:58.270Z,28.80
2018-06-01T01:37:34.631Z,28.80
2018-06-01T01:40:02.097Z,28.50
2018-06-01T01:42:29.551Z,28.60
2018-06-01T01:44:57.115Z,28.20
2018-06-01T01:47:24.568Z,28.30
2018-06-01T01:50:00.797Z,28.50
2018-06-01T01:52:28.265Z,28.70
2018-06-01T01:54:55.752Z,28.80
2018-06-01T01:57:23.201Z,28.80
2018-06-01T01:59:50.660Z,28.80
2018-06-01T02:02:24.544Z,28.80
2018-06-01T02:04:52.024Z,28.90
2018-06-01T02:07:19.652Z,28.90
2018-06-01T02:09:47.124Z,27.90
2018-06-01T02:12:14.607Z,27.20
2018-06-01T02:14:42.836Z,28.00
2018-06-01T02:17:10.305Z,28.00
2018-06-01T02:19:37.795Z,28.30
2018-06-01T02:22:05.252Z,28.20
2018-06-01T02:24:32.721Z,28.40
2018-06-01T02:27:00.188Z,28.50
2018-06-01T02:29:27.649Z,28.40
2018-06-01T02:31:55.876Z,28.30
2018-06-01T02:34:23.360Z,28.20
2018-06-01T02:36:52.332Z,28.00
2018-06-01T02:39:19.817Z,28.00
2018-06-01T02:41:48.064Z,27.30
2018-06-01T02:44:15.645Z,27.30
2018-06-01T02:46:43.104Z,27.80
2018-06-01T02:49:10.567Z,28.00
2018-06-01T02:51:38.032Z,27.50
2018-06-01T02:54:05.505Z,27.20
2018-06-01T02:56:32.948Z,27.60
2018-06-01T02:59:00.413Z,27.30
2018-06-01T03:01:27.871Z,27.20
2018-06-01T03:03:55.367Z,27.10
2018-06-01T03:06:22.830Z,27.70
2018-06-01T03:08:50.305Z,27.90
2018-06-01T03:11:18.056Z,27.50
2018-06-01T03:13:45.525Z,27.50
2018-06-01T03:16:13.000Z,26.90
2018-06-01T03:18:40.460Z,26.50
2018-06-01T03:21:07.912Z,26.90
2018-06-01T03:23:35.376Z,27.30
2018-06-01T03:26:03.607Z,27.10
2018-06-01T03:28:31.099Z,27.10
2018-06-01T03:30:58.565Z,27.50
2018-06-01T03:33:27.544Z,27.50
2018-06-01T03:35:55.016Z,27.50
2018-06-01T03:38:22.484Z,27.80
2018-06-01T03:40:50.728Z,27.40
2018-06-01T03:43:18.202Z,27.40
2018-06-01T03:45:45.669Z,27.40
2018-06-01T03:48:13.128Z,27.30
2018-06-01T03:50:40.593Z,27.70
2018-06-01T03:53:08.829Z,28.00
2018-06-01T03:55:36.316Z,28.00
2018-06-01T03:58:03.775Z,28.00
2018-06-01T04:00:31.254Z,27.70
2018-06-01T04:02:59.491Z,28.00
2018-06-01T04:05:26.937Z,28.00
2018-06-01T04:07:54.400Z,28.10
2018-06-01T04:10:21.877Z,28.30
2018-06-01T04:12:51.048Z,27.50
2018-06-01T04:15:18.526Z,27.40
2018-06-01T04:17:45.980Z,27.80
2018-06-01T04:20:13.465Z,28.00
2018-06-01T04:22:41.685Z,28.10
2018-06-01T04:25:09.156Z,28.10
2018-06-01T04:27:36.628Z,28.30
2018-06-01T04:30:04.077Z,28.30
2018-06-01T04:32:31.527Z,28.40
2018-06-01T04:34:59.012Z,28.50
2018-06-01T04:37:26.468Z,28.60
2018-06-01T04:39:53.931Z,28.50
2018-06-01T04:42:22.163Z,28.30
2018-06-01T04:44:49.637Z,28.30
2018-06-01T04:47:17.096Z,28.40
2018-06-01T04:49:44.572Z,28.50
2018-06-01T04:52:12.031Z,28.50
2018-06-01T04:54:39.495Z,28.30
2018-06-01T04:57:08.465Z,28.40
2018-06-01T04:59:35.945Z,28.40
2018-06-01T05:02:03.401Z,28.50
2018-06-01T05:04:30.868Z,28.40
2018-06-01T05:06:58.328Z,28.40
2018-06-01T05:09:26.557Z,28.50
2018-06-01T05:11:54.044Z,28.50
2018-06-01T05:14:21.506Z,28.50
2018-06-01T05:16:48.968Z,28.50
2018-06-01T05:19:16.433Z,28.40
2018-06-01T05:21:43.896Z,28.50
2018-06-01T05:24:12.132Z,28.50
2018-06-01T05:26:39.608Z,28.50
2018-06-01T05:29:07.064Z,28.40
2018-06-01T05:31:34.523Z,28.40
2018-06-01T05:34:01.985Z,28.50
2018-06-01T05:36:29.452Z,28.50
2018-06-01T05:38:56.916Z,28.50
2018-06-01T05:41:25.160Z,28.50
2018-06-01T05:43:52.612Z,28.40
2018-06-01T05:46:20.088Z,28.50
2018-06-01T05:48:47.599Z,28.40
2018-06-01T05:51:15.116Z,28.40
2018-06-01T05:53:43.365Z,28.50
2018-06-01T05:56:10.828Z,28.50
2018-06-01T05:58:38.284Z,28.50
2018-06-01T06:01:05.762Z,28.60
2018-06-01T06:03:33.984Z,28.60
2018-06-01T06:06:01.469Z,28.60
2018-06-01T06:08:28.945Z,28.70
2018-06-01T06:10:56.424Z,28.80
2018-06-01T06:13:23.885Z,28.80
2018-06-01T06:15:51.340Z,28.70
2018-06-01T06:18:18.793Z,28.70
2018-06-01T06:20:46.262Z,28.80
2018-06-01T06:23:14.486Z,28.20
2018-06-01T06:25:41.979Z,28.10
2018-06-01T06:28:09.468Z,28.40
2018-06-01T06:30:37.723Z,28.70
2018-06-01T06:33:05.991Z,28.50
2018-06-01T06:35:33.501Z,28.50
2018-06-01T06:38:00.968Z,28.70
2018-06-01T06:40:28.429Z,28.70
2018-06-01T06:42:55.891Z,28.70
2018-06-01T06:45:23.366Z,28.80
2018-06-01T06:47:50.824Z,28.60
2018-06-01T06:50:18.281Z,28.90
2018-06-01T06:52:45.757Z,28.60
2018-06-01T06:55:13.224Z,28.50
2018-06-01T06:57:41.460Z,28.20
2018-06-01T07:00:09.905Z,28.10
2018-06-01T07:02:37.404Z,27.90
2018-06-01T07:05:04.845Z,28.10
2018-06-01T07:07:32.324Z,28.30
2018-06-01T07:09:59.789Z,28.40
2018-06-01T07:12:27.257Z,28.30
2018-06-01T07:14:54.752Z,28.40
2018-06-01T07:17:22.230Z,28.70
2018-06-01T07:19:49.688Z,28.60
2018-06-01T07:22:17.179Z,28.50
2018-06-01T07:24:44.643Z,28.80
2018-06-01T07:27:12.104Z,29.10
2018-06-01T07:29:40.358Z,29.40
2018-06-01T07:32:07.836Z,29.40
2018-06-01T07:34:36.823Z,29.50
2018-06-01T07:37:04.296Z,29.50
2018-06-01T07:39:31.752Z,29.50
2018-06-01T07:41:59.241Z,29.70
2018-06-01T07:44:26.696Z,29.80
2018-06-01T07:46:54.249Z,29.70
2018-06-01T07:49:21.640Z,29.90
2018-06-01T07:51:49.119Z,30.10
2018-06-01T07:54:16.575Z,30.10
2018-06-01T07:56:44.033Z,30.20
2018-06-01T07:59:11.484Z,30.20
2018-06-01T08:01:38.971Z,30.30
2018-06-01T08:04:07.199Z,30.60
2018-06-01T08:06:34.686Z,30.60
2018-06-01T08:09:02.148Z,30.60
2018-06-01T08:11:29.616Z,30.70
2018-06-01T08:13:57.077Z,30.70
2018-06-01T08:16:24.536Z,30.70
2018-06-01T08:18:51.993Z,30.70
2018-06-01T08:21:19.452Z,30.90
2018-06-01T08:23:46.916Z,31.00
2018-06-01T08:26:14.369Z,31.10
2018-06-01T08:28:42.620Z,31.20
2018-06-01T08:31:10.081Z,31.20
2018-06-01T08:33:37.557Z,31.40
2018-06-01T08:36:05.022Z,31.60
2018-06-01T08:38:32.479Z,31.70
2018-06-01T08:41:00.779Z,31.80
2018-06-01T08:43:28.252Z,31.70
2018-06-01T08:45:55.763Z,31.80
2018-06-01T08:48:23.235Z,31.90
2018-06-01T08:50:50.705Z,32.00
2018-06-01T08:53:18.937Z,32.10
2018-06-01T08:55:46.394Z,32.00
2018-06-01T08:58:13.855Z,32.20
2018-06-01T09:00:41.320Z,32.20
2018-06-01T09:03:09.560Z,32.40
2018-06-01T09:05:37.020Z,32.40
2018-06-01T09:08:04.499Z,32.50
2018-06-01T09:10:31.957Z,32.60
2018-06-01T09:12:59.424Z,32.70
2018-06-01T09:15:26.884Z,32.80
2018-06-01T09:17:55.131Z,32.90
2018-06-01T09:20:22.606Z,32.90
2018-06-01T09:22:50.073Z,32.90
2018-06-01T09:25:17.537Z,32.90
2018-06-01T09:27:45.001Z,32.90
2018-06-01T09:30:12.457Z,33.00
2018-06-01T09:32:39.912Z,33.10
2018-06-01T09:35:07.368Z,33.20
2018-06-01T09:37:34.850Z,33.30
2018-06-01T09:40:03.075Z,33.50
2018-06-01T09:42:30.540Z,33.40
2018-06-01T09:44:58.116Z,33.40
2018-06-01T09:47:25.608Z,33.40
2018-06-01T09:49:53.832Z,33.50
2018-06-01T09:52:21.327Z,33.50
2018-06-01T09:54:48.753Z,33.70
2018-06-01T09:57:17.008Z,33.80
2018-06-01T09:59:45.232Z,33.90
2018-06-01T10:02:13.453Z,33.90
2018-06-01T10:04:40.920Z,33.90
2018-06-01T10:07:09.138Z,34.00
2018-06-01T10:09:36.588Z,34.00
2018-06-01T10:12:04.044Z,34.10
2018-06-01T10:14:31.523Z,34.10
2018-06-01T10:16:59.749Z,34.30
2018-06-01T10:19:27.216Z,34.30
2018-06-01T10:21:54.673Z,34.30
2018-06-01T10:24:22.128Z,34.30
2018-06-01T10:26:49.584Z,34.40
2018-06-01T10:29:17.046Z,34.40
2018-06-01T10:31:44.505Z,34.50
2018-06-01T10:34:11.960Z,34.50
2018-06-01T10:36:39.420Z,34.60
2018-06-01T10:39:06.900Z,34.50
2018-06-01T10:41:34.363Z,34.60
2018-06-01T10:44:02.599Z,34.80
2018-06-01T10:46:34.137Z,34.80
2018-06-01T10:49:01.617Z,34.80
2018-06-01T10:51:29.077Z,34.90
2018-06-01T10:53:56.539Z,35.00
2018-06-01T10:56:23.991Z,35.00
2018-06-01T10:58:52.268Z,35.10
2018-06-01T11:01:19.724Z,35.00
2018-06-01T11:03:47.180Z,35.10
2018-06-01T11:06:14.644Z,35.10
2018-06-01T11:08:42.104Z,35.20
2018-06-01T11:11:09.560Z,35.20
2018-06-01T11:13:37.030Z,35.30
2018-06-01T11:16:04.486Z,35.40
2018-06-01T11:18:31.945Z,35.50
2018-06-01T11:20:59.404Z,35.70
2018-06-01T11:23:26.859Z,35.60
2018-06-01T11:25:54.316Z,35.70
2018-06-01T11:28:21.780Z,35.80
2018-06-01T11:30:49.229Z,35.80
2018-06-01T11:33:16.693Z,36.00
2018-06-01T11:35:44.938Z,36.10
2018-06-01T11:38:12.405Z,36.10
2018-06-01T11:40:39.869Z,36.20
2018-06-01T11:43:07.316Z,36.20
2018-06-01T11:45:34.780Z,36.30
2018-06-01T11:48:02.248Z,36.30
2018-06-01T11:50:30.489Z,36.50
2018-06-01T11:52:57.962Z,36.50
2018-06-01T11:55:25.424Z,36.40
2018-06-01T11:57:52.931Z,36.20
2018-06-01T12:00:21.156Z,35.50
2018-06-01T12:02:48.623Z,35.50
2018-06-01T12:05:16.220Z,35.10
2018-06-01T12:07:44.469Z,34.60
2018-06-01T12:10:11.946Z,34.60
2018-06-01T12:12:39.401Z,34.40
2018-06-01T12:15:07.644Z,34.10
2018-06-01T12:17:35.150Z,34.10
2018-06-01T12:20:02.609Z,33.90
2018-06-01T12:22:30.836Z,33.80
2018-06-01T12:25:00.056Z,33.80
2018-06-01T12:27:28.282Z,33.70
2018-06-01T12:29:55.758Z,33.70
2018-06-01T12:32:24.874Z,33.50
2018-06-01T12:34:52.386Z,33.50
2018-06-01T12:37:20.601Z,33.40
2018-06-01T12:39:48.068Z,33.30
2018-06-01T12:42:15.563Z,33.20
2018-06-01T12:44:43.788Z,33.20
2018-06-01T12:47:11.244Z,33.10
2018-06-01T12:49:38.709Z,33.10
2018-06-01T12:52:06.183Z,33.00
2018-06-01T12:54:33.695Z,32.90
2018-06-01T12:57:01.159Z,32.90
2018-06-01T12:59:28.625Z,32.90
2018-06-01T13:01:56.085Z,32.90
2018-06-01T13:04:23.566Z,32.80
2018-06-01T13:06:51.024Z,32.80
2018-06-01T13:09:18.500Z,32.70
2018-06-01T13:11:45.968Z,32.70
2018-06-01T13:14:14.213Z,32.80
2018-06-01T13:16:41.666Z,32.80
2018-06-01T13:19:09.145Z,32.80
2018-06-01T13:21:36.600Z,32.40
2018-06-01T13:24:04.083Z,32.10
2018-06-01T13:26:32.304Z,29.90
2018-06-01T13:28:59.764Z,29.80
2018-06-01T13:31:27.238Z,29.00
2018-06-01T13:33:54.696Z,28.50
2018-06-01T13:36:22.157Z,28.30
2018-06-01T13:38:51.765Z,28.20
2018-06-01T13:41:19.591Z,28.00
2018-06-01T13:43:47.034Z,27.20
2018-06-01T13:46:14.500Z,26.50
2018-06-01T13:48:41.952Z,26.30
2018-06-01T13:51:09.563Z,26.80
2018-06-01T13:53:39.742Z,26.60
2018-06-01T13:56:07.432Z,26.60
2018-06-01T13:58:34.888Z,26.90
2018-06-01T14:01:02.429Z,26.70
2018-06-01T14:03:30.054Z,27.10
2018-06-01T14:05:59.715Z,26.30
2018-06-01T14:08:28.402Z,26.30
2018-06-01T14:10:59.086Z,26.70
2018-06-01T14:13:26.692Z,26.90
2018-06-01T14:15:54.176Z,27.30
2018-06-01T14:18:22.109Z,27.60
2018-06-01T14:20:51.301Z,27.80
2018-06-01T14:23:19.705Z,28.00
2018-06-01T14:25:47.172Z,27.70
2018-06-01T14:28:14.628Z,27.90
2018-06-01T14:30:42.090Z,27.10
2018-06-01T14:33:09.607Z,26.70
2018-06-01T14:35:37.020Z,27.20
2018-06-01T14:38:05.993Z,27.20
2018-06-01T14:40:33.540Z,27.20
2018-06-01T14:43:01.019Z,27.40
2018-06-01T14:45:31.948Z,27.50
2018-06-01T14:48:01.283Z,27.70
2018-06-01T14:50:29.826Z,27.70
2018-06-01T14:52:57.391Z,27.60
2018-06-01T14:55:24.881Z,27.60
2018-06-01T14:57:53.937Z,27.90
2018-06-01T15:00:21.450Z,27.90
2018-06-01T15:02:48.909Z,28.10
2018-06-01T15:05:16.382Z,28.10
2018-06-01T15:07:43.908Z,28.30
2018-06-01T15:10:13.233Z,28.20
2018-06-01T15:12:41.521Z,27.80
2018-06-01T15:15:09.015Z,27.80
2018-06-01T15:17:36.471Z,27.60
2018-06-01T15:20:05.125Z,27.30
2018-06-01T15:22:32.581Z,27.30
2018-06-01T15:25:00.072Z,27.60
2018-06-01T15:27:27.541Z,27.50
2018-06-01T15:29:55.004Z,27.40
2018-06-01T15:32:27.267Z,27.30
2018-06-01T15:34:54.719Z,27.40
2018-06-01T15:37:22.420Z,27.40
2018-06-01T15:39:50.644Z,27.20
2018-06-01T15:42:18.660Z,27.20
2018-06-01T15:44:47.010Z,27.10
2018-06-01T15:47:14.468Z,27.00
2018-06-01T15:49:41.925Z,27.10
2018-06-01T15:52:09.388Z,27.30
2018-06-01T15:54:37.138Z,27.40
2018-06-01T15:57:05.326Z,27.40
2018-06-01T15:59:32.832Z,27.40
2018-06-01T16:02:01.056Z,27.50
2018-06-01T16:04:28.508Z,27.40
2018-06-01T16:06:56.062Z,27.30
2018-06-01T16:09:23.562Z,27.20
2018-06-01T16:11:51.804Z,27.10
2018-06-01T16:14:19.264Z,27.00
2018-06-01T16:16:46.829Z,27.00
2018-06-01T16:19:14.376Z,26.90
2018-06-01T16:21:41.944Z,26.70
2018-06-01T16:24:09.401Z,26.70
2018-06-01T16:26:36.858Z,26.80
2018-06-01T16:29:04.325Z,26.70
2018-06-01T16:31:31.805Z,26.80
2018-06-01T16:33:59.299Z,26.90
2018-06-01T16:36:26.769Z,26.70
2018-06-01T16:38:54.224Z,26.70
2018-06-01T16:41:21.770Z,26.60
2018-06-01T16:43:49.342Z,26.60
2018-06-01T16:46:16.876Z,26.60
2018-06-01T16:48:45.203Z,26.60
2018-06-01T16:51:12.753Z,26.50
2018-06-01T16:53:40.381Z,26.50
2018-06-01T16:56:11.259Z,26.30
2018-06-01T16:58:39.734Z,26.40
2018-06-01T17:01:07.271Z,26.40
2018-06-01T17:03:34.843Z,26.50
2018-06-01T17:06:02.399Z,26.20
2018-06-01T17:08:29.933Z,26.30
2018-06-01T17:10:57.429Z,26.20
2018-06-01T17:13:24.888Z,26.60
2018-06-01T17:15:52.343Z,26.80
2018-06-01T17:18:19.838Z,27.10
2018-06-01T17:20:47.369Z,27.10
2018-06-01T17:23:14.868Z,27.10
2018-06-01T17:25:43.129Z,27.00
2018-06-01T17:28:10.717Z,27.00
2018-06-01T17:30:38.932Z,27.00
2018-06-01T17:33:06.409Z,27.00
2018-06-01T17:35:33.925Z,27.10
2018-06-01T17:38:01.385Z,27.10
2018-06-01T17:40:28.868Z,27.20
2018-06-01T17:42:56.324Z,27.40
2018-06-01T17:45:23.785Z,27.40
2018-06-01T17:47:52.261Z,27.30
2018-06-01T17:50:19.723Z,27.30
2018-06-01T17:52:47.242Z,27.40
2018-06-01T17:55:15.467Z,27.30
2018-06-01T17:57:42.924Z,27.30
2018-06-01T18:00:10.388Z,27.00
2018-06-01T18:02:37.857Z,26.90
2018-06-01T18:05:05.329Z,27.00
2018-06-01T18:07:32.795Z,26.80
2018-06-01T18:10:01.028Z,26.60
2018-06-01T18:12:28.511Z,26.60
2018-06-01T18:14:56.032Z,26.50
2018-06-01T18:17:23.503Z,26.60
2018-06-01T18:19:50.968Z,26.80
2018-06-01T18:22:18.474Z,26.80
2018-06-01T18:24:45.932Z,26.90
2018-06-01T18:27:14.239Z,27.10
2018-06-01T18:29:41.908Z,27.00
2018-06-01T18:32:09.368Z,27.20
2018-06-01T18:34:36.834Z,27.20
2018-06-01T18:37:04.296Z,27.00
2018-06-01T18:39:31.773Z,27.20
2018-06-01T18:41:59.249Z,27.20
2018-06-01T18:44:26.716Z,27.10
2018-06-01T18:46:54.223Z,26.80
2018-06-01T18:49:21.731Z,26.50
2018-06-01T18:51:49.978Z,26.10
2018-06-01T18:54:17.496Z,26.10
2018-06-01T18:56:44.963Z,26.20
2018-06-01T18:59:12.426Z,26.30
2018-06-01T19:01:39.913Z,26.10
2018-06-01T19:04:07.381Z,26.00
2018-06-01T19:06:36.349Z,26.10
2018-06-01T19:09:03.850Z,26.10
2018-06-01T19:11:31.292Z,26.00
2018-06-01T19:13:58.752Z,25.90
2018-06-01T19:16:26.258Z,26.10
2018-06-01T19:18:53.721Z,25.80
2018-06-01T19:21:21.188Z,25.80
2018-06-01T19:23:48.682Z,25.90
2018-06-01T19:26:16.129Z,25.80
2018-06-01T19:28:43.594Z,25.80
2018-06-01T19:31:12.576Z,25.80
2018-06-01T19:33:40.048Z,25.70
2018-06-01T19:36:07.522Z,25.80
2018-06-01T19:38:37.664Z,26.00
2018-06-01T19:41:05.155Z,26.00
2018-06-01T19:43:32.671Z,26.30
2018-06-01T19:46:00.164Z,26.50
2018-06-01T19:48:27.673Z,26.60
2018-06-01T19:50:55.935Z,26.70
2018-06-01T19:53:23.434Z,26.60
2018-06-01T19:55:50.929Z,26.80
2018-06-01T19:58:18.407Z,26.70
2018-06-01T20:00:45.874Z,26.60
2018-06-01T20:03:14.186Z,26.70
2018-06-01T20:05:41.698Z,26.60
2018-06-01T20:08:09.210Z,26.70
2018-06-01T20:10:36.793Z,26.60
2018-06-01T20:13:04.327Z,26.50
2018-06-01T20:15:32.567Z,26.30
2018-06-01T20:18:00.845Z,26.30
2018-06-01T20:20:29.128Z,26.00
2018-06-01T20:22:57.386Z,25.80
2018-06-01T20:25:25.628Z,25.90
2018-06-01T20:27:53.113Z,25.90
2018-06-01T20:30:20.596Z,25.60
2018-06-01T20:32:48.849Z,25.60
2018-06-01T20:35:16.321Z,25.60
2018-06-01T20:37:44.587Z,25.70
2018-06-01T20:40:12.190Z,25.70
2018-06-01T20:42:39.708Z,25.70
2018-06-01T20:45:07.203Z,25.60
2018-06-01T20:47:35.443Z,25.20
2018-06-01T20:50:02.919Z,25.20
2018-06-01T20:52:31.182Z,25.50
2018-06-01T20:54:59.443Z,25.50
2018-06-01T20:57:26.980Z,25.40
2018-06-01T20:59:55.285Z,25.80
2018-06-01T21:02:22.798Z,25.80
2018-06-01T21:04:50.320Z,25.80
2018-06-01T21:07:18.601Z,25.90
2018-06-01T21:09:46.202Z,25.90
2018-06-01T21:12:14.533Z,26.00
2018-06-01T21:14:42.064Z,26.00
2018-06-01T21:17:09.557Z,26.00
2018-06-01T21:19:37.870Z,26.10
2018-06-01T21:22:05.366Z,26.10
2018-06-01T21:24:32.838Z,26.10
2018-06-01T21:27:01.158Z,26.20
2018-06-01T21:29:28.660Z,26.20
2018-06-01T21:31:56.116Z,26.20
2018-06-01T21:34:23.655Z,26.20
2018-06-01T21:36:51.152Z,26.20
2018-06-01T21:39:19.411Z,26.30
2018-06-01T21:41:47.684Z,26.20
2018-06-01T21:44:15.231Z,26.20
2018-06-01T21:46:42.756Z,26.30
2018-06-01T21:49:10.225Z,26.30
2018-06-01T21:51:37.694Z,26.30
2018-06-01T21:54:05.161Z,26.30
2018-06-01T21:56:32.620Z,26.30
2018-06-01T21:59:00.157Z,26.30
2018-06-01T22:01:27.576Z,26.30
2018-06-01T22:03:55.059Z,26.30
2018-06-01T22:06:22.517Z,26.30
2018-06-01T22:08:49.984Z,26.30
2018-06-01T22:11:17.455Z,26.30
2018-06-01T22:13:44.938Z,26.30
2018-06-01T22:16:12.428Z,26.30
2018-06-01T22:18:39.869Z,26.30
2018-06-01T22:21:07.329Z,26.30
2018-06-01T22:23:34.796Z,26.30
2018-06-01T22:26:03.051Z,26.40
2018-06-01T22:28:31.293Z,26.30
2018-06-01T22:30:58.752Z,26.30
2018-06-01T22:33:26.215Z,26.30
2018-06-01T22:35:53.677Z,26.30
2018-06-01T22:38:21.159Z,26.30
2018-06-01T22:40:48.612Z,26.30
2018-06-01T22:43:16.083Z,26.30
2018-06-01T22:45:44.343Z,26.30
2018-06-01T22:48:11.908Z,26.30
2018-06-01T22:50:39.390Z,26.30
2018-06-01T22:53:06.862Z,26.30
2018-06-01T22:55:34.333Z,26.30
2018-06-01T22:58:01.808Z,26.30
2018-06-01T23:00:33.052Z,26.30
2018-06-01T23:03:00.510Z,26.30
2018-06-01T23:05:27.993Z,26.30
2018-06-01T23:07:55.464Z,26.30
2018-06-01T23:10:22.923Z,26.30
2018-06-01T23:12:50.385Z,26.30
2018-06-01T23:15:17.856Z,26.30
2018-06-01T23:17:46.080Z,26.30
2018-06-01T23:20:14.318Z,26.30
2018-06-01T23:22:42.532Z,26.30
2018-06-01T23:25:10.003Z,26.30
2018-06-01T23:27:37.473Z,26.30
2018-06-01T23:30:04.942Z,26.30
2018-06-01T23:32:32.410Z,26.30
2018-06-01T23:34:59.881Z,26.30
2018-06-01T23:37:28.100Z,26.30
2018-06-01T23:39:55.576Z,26.30
2018-06-01T23:42:23.051Z,26.30
2018-06-01T23:44:50.516Z,26.30
2018-06-01T23:47:17.977Z,26.20
2018-06-01T23:49:45.457Z,26.20
2018-06-01T23:52:13.677Z,26.20
2018-06-01T23:54:41.140Z,26.10
2018-06-01T23:57:08.660Z,26.20
2018-06-01T23:59:36.126Z,26.10
